createdAt,value
2018-07-02T00:02:02.271Z,60.60
2018-07-02T00:04:29.911Z,60.60
2018-07-02T00:07:08.917Z,60.70
2018-07-02T00:09:36.517Z,61.00
2018-07-02T00:12:04.178Z,61.20
2018-07-02T00:14:31.843Z,61.40
2018-07-02T00:16:59.497Z,61.40
2018-07-02T00:19:27.108Z,61.60
2018-07-02T00:21:54.888Z,61.30
2018-07-02T00:24:22.551Z,61.60
2018-07-02T00:29:17.731Z,61.50
2018-07-02T00:31:45.327Z,61.70
2018-07-02T00:34:13.006Z,61.60
2018-07-02T00:39:48.174Z,61.80
2018-07-02T00:42:16.373Z,61.90
2018-07-02T00:44:43.962Z,61.70
2018-07-02T00:47:11.536Z,61.60
2018-07-02T00:49:39.698Z,61.50
2018-07-02T00:52:07.291Z,61.40
2018-07-02T00:54:34.895Z,61.70
2018-07-02T00:57:02.491Z,61.60
2018-07-02T00:59:30.141Z,62.00
2018-07-02T01:04:27.068Z,62.00
2018-07-02T01:06:56.758Z,62.00
2018-07-02T01:09:24.351Z,62.10
2018-07-02T01:11:52.068Z,61.80
2018-07-02T01:14:19.676Z,61.80
2018-07-02T01:16:48.285Z,61.80
2018-07-02T01:19:16.655Z,61.80
2018-07-02T01:21:44.300Z,61.80
2018-07-02T01:24:11.869Z,62.00
2018-07-02T01:26:39.494Z,62.00
2018-07-02T01:29:07.084Z,62.00
2018-07-02T01:31:34.783Z,62.10
2018-07-02T01:34:02.428Z,62.20
2018-07-02T01:36:30.021Z,62.30
2018-07-02T01:38:57.729Z,62.40
2018-07-02T01:41:25.299Z,62.50
2018-07-02T01:43:52.892Z,62.40
2018-07-02T01:46:20.490Z,62.50
2018-07-02T01:48:48.115Z,62.70
2018-07-02T01:51:15.719Z,63.10
2018-07-02T01:53:43.358Z,62.90
2018-07-02T01:56:11.010Z,63.20
2018-07-02T01:58:38.611Z,63.30
2018-07-02T02:01:06.208Z,63.30
2018-07-02T02:03:33.819Z,63.30
2018-07-02T02:06:01.442Z,63.50
2018-07-02T02:08:29.068Z,63.30
2018-07-02T02:10:56.641Z,63.50
2018-07-02T02:13:24.247Z,63.40
2018-07-02T02:15:51.828Z,63.50
2018-07-02T02:18:19.407Z,63.60
2018-07-02T02:20:47.013Z,63.70
2018-07-02T02:23:14.596Z,63.60
2018-07-02T02:25:42.291Z,63.70
2018-07-02T02:28:09.908Z,63.80
2018-07-02T02:30:37.607Z,63.80
2018-07-02T02:33:06.206Z,63.80
2018-07-02T02:35:33.752Z,63.90
2018-07-02T02:38:01.448Z,64.10
2018-07-02T02:40:29.074Z,64.40
2018-07-02T02:42:56.662Z,64.40
2018-07-02T02:45:24.300Z,64.40
2018-07-02T02:50:19.515Z,64.10
2018-07-02T02:52:47.150Z,64.30
2018-07-02T02:55:21.312Z,64.30
2018-07-02T02:57:48.919Z,64.60
2018-07-02T03:00:16.512Z,64.60
2018-07-02T03:02:44.137Z,64.50
2018-07-02T03:05:11.788Z,64.70
2018-07-02T03:07:40.383Z,64.70
2018-07-02T03:10:07.998Z,64.70
2018-07-02T03:12:35.602Z,64.70
2018-07-02T03:15:03.288Z,64.90
2018-07-02T03:17:30.883Z,64.80
2018-07-02T03:19:59.435Z,65.00
2018-07-02T03:22:27.072Z,64.90
2018-07-02T03:24:54.697Z,65.00
2018-07-02T03:27:22.351Z,65.10
2018-07-02T03:29:49.938Z,64.90
2018-07-02T03:32:19.325Z,65.30
2018-07-02T03:34:46.892Z,65.20
2018-07-02T03:37:14.508Z,65.30
2018-07-02T03:39:42.148Z,65.20
2018-07-02T03:42:09.852Z,65.40
2018-07-02T03:44:37.448Z,65.30
2018-07-02T03:47:05.054Z,65.40
2018-07-02T03:49:33.299Z,65.20
2018-07-02T03:52:00.886Z,65.40
2018-07-02T03:54:28.520Z,65.10
2018-07-02T03:56:56.136Z,65.20
2018-07-02T03:59:23.744Z,65.20
2018-07-02T04:01:51.363Z,65.30
2018-07-02T04:04:18.976Z,65.30
2018-07-02T04:06:46.560Z,65.10
2018-07-02T04:09:14.194Z,65.20
2018-07-02T04:11:41.936Z,65.20
2018-07-02T04:14:09.634Z,65.30
2018-07-02T04:16:37.599Z,65.00
2018-07-02T04:19:09.070Z,65.30
2018-07-02T04:21:37.120Z,65.20
2018-07-02T04:24:04.847Z,65.30
2018-07-02T04:26:32.471Z,65.10
2018-07-02T04:29:00.111Z,65.50
2018-07-02T04:31:27.686Z,65.10
2018-07-02T04:36:22.798Z,65.10
2018-07-02T04:38:50.487Z,64.50
2018-07-02T04:41:18.256Z,64.60
2018-07-02T04:43:45.897Z,64.50
2018-07-02T04:46:13.521Z,64.30
2018-07-02T04:48:41.163Z,64.60
2018-07-02T04:51:08.801Z,64.40
2018-07-02T04:53:36.387Z,64.20
2018-07-02T04:56:04.075Z,64.30
2018-07-02T04:58:31.668Z,63.70
2018-07-02T05:00:59.315Z,63.60
2018-07-02T05:03:26.881Z,63.60
2018-07-02T05:05:54.495Z,63.90
2018-07-02T05:08:22.053Z,63.50
2018-07-02T05:10:50.306Z,63.60
2018-07-02T05:13:17.963Z,63.80
2018-07-02T05:15:46.415Z,63.50
2018-07-02T05:18:14.040Z,63.50
2018-07-02T05:20:41.668Z,63.50
2018-07-02T05:23:09.312Z,63.50
2018-07-02T05:25:36.997Z,63.10
2018-07-02T05:28:04.671Z,63.50
2018-07-02T05:30:32.270Z,63.40
2018-07-02T05:32:59.888Z,62.90
2018-07-02T05:35:27.492Z,63.10
2018-07-02T05:37:55.192Z,62.90
2018-07-02T05:40:22.716Z,62.60
2018-07-02T05:42:50.351Z,62.70
2018-07-02T05:45:17.943Z,62.60
2018-07-02T05:47:45.558Z,62.60
2018-07-02T05:50:13.146Z,62.80
2018-07-02T05:52:40.801Z,62.40
2018-07-02T05:55:08.589Z,62.70
2018-07-02T05:57:36.165Z,62.40
2018-07-02T06:00:03.914Z,61.90
2018-07-02T06:02:31.498Z,61.80
2018-07-02T06:04:59.080Z,61.50
2018-07-02T06:07:26.628Z,62.50
2018-07-02T06:12:21.803Z,62.50
2018-07-02T06:14:49.978Z,62.70
2018-07-02T06:17:17.589Z,62.60
2018-07-02T06:19:45.175Z,62.00
2018-07-02T06:22:12.831Z,61.90
2018-07-02T06:24:40.431Z,61.80
2018-07-02T06:27:09.063Z,61.80
2018-07-02T06:29:36.765Z,61.70
2018-07-02T06:32:05.152Z,61.10
2018-07-02T06:34:32.907Z,61.20
2018-07-02T06:37:00.579Z,61.40
2018-07-02T06:39:28.218Z,61.30
2018-07-02T06:41:55.926Z,60.80
2018-07-02T06:44:23.601Z,61.30
2018-07-02T06:49:18.793Z,61.10
2018-07-02T06:51:46.386Z,60.20
2018-07-02T06:54:14.113Z,59.60
2018-07-02T06:56:41.774Z,60.10
2018-07-02T06:59:09.340Z,60.10
2018-07-02T07:04:04.710Z,59.70
2018-07-02T07:06:32.308Z,59.40
2018-07-02T07:08:59.894Z,59.90
2018-07-02T07:11:27.507Z,58.40
2018-07-02T07:13:55.087Z,58.90
2018-07-02T07:16:22.694Z,59.10
2018-07-02T07:18:50.351Z,59.30
2018-07-02T07:21:17.936Z,59.40
2018-07-02T07:23:45.543Z,58.50
2018-07-02T07:26:13.120Z,59.60
2018-07-02T07:28:40.782Z,59.60
2018-07-02T07:31:08.407Z,58.10
2018-07-02T07:33:36.054Z,58.90
2018-07-02T07:36:03.692Z,57.90
2018-07-02T07:38:31.790Z,58.10
2018-07-02T07:40:59.451Z,57.50
2018-07-02T07:43:27.702Z,58.20
2018-07-02T07:45:55.261Z,58.60
2018-07-02T07:48:22.888Z,58.20
2018-07-02T07:50:50.501Z,57.70
2018-07-02T07:53:18.124Z,57.20
2018-07-02T07:55:45.738Z,58.10
2018-07-02T07:58:13.868Z,57.60
2018-07-02T08:00:41.490Z,57.00
2018-07-02T08:03:09.155Z,57.50
2018-07-02T08:05:36.756Z,57.10
2018-07-02T08:08:04.374Z,57.20
2018-07-02T08:10:32.108Z,57.30
2018-07-02T08:12:59.696Z,57.10
2018-07-02T08:15:27.351Z,56.40
2018-07-02T08:17:55.051Z,56.10
2018-07-02T08:20:22.660Z,56.40
2018-07-02T08:22:50.284Z,55.70
2018-07-02T08:25:17.965Z,56.30
2018-07-02T08:27:45.620Z,55.20
2018-07-02T08:30:13.261Z,55.20
2018-07-02T08:32:40.870Z,55.40
2018-07-02T08:35:08.546Z,55.20
2018-07-02T08:37:36.195Z,55.40
2018-07-02T08:40:04.297Z,55.40
2018-07-02T08:42:31.900Z,54.30
2018-07-02T08:44:59.487Z,54.80
2018-07-02T08:47:27.184Z,53.10
2018-07-02T08:49:54.740Z,54.00
2018-07-02T08:52:22.347Z,54.20
2018-07-02T08:54:49.926Z,53.60
2018-07-02T08:57:17.512Z,54.40
2018-07-02T08:59:45.150Z,51.90
2018-07-02T09:02:12.772Z,51.90
2018-07-02T09:04:40.431Z,52.30
2018-07-02T09:07:08.086Z,51.70
2018-07-02T09:09:35.700Z,52.50
2018-07-02T09:12:08.438Z,52.30
2018-07-02T09:14:36.087Z,52.40
2018-07-02T09:17:03.796Z,52.20
2018-07-02T09:19:31.375Z,51.70
2018-07-02T09:21:58.998Z,52.30
2018-07-02T09:24:30.916Z,51.80
2018-07-02T09:26:58.553Z,50.70
2018-07-02T09:29:26.158Z,49.10
2018-07-02T09:31:53.821Z,49.50
2018-07-02T09:34:21.472Z,49.60
2018-07-02T09:36:49.044Z,48.70
2018-07-02T09:39:16.735Z,48.30
2018-07-02T09:41:45.043Z,48.70
2018-07-02T09:44:12.647Z,48.90
2018-07-02T09:46:40.228Z,48.20
2018-07-02T09:49:07.899Z,48.00
2018-07-02T09:51:35.578Z,48.60
2018-07-02T09:54:03.208Z,47.30
2018-07-02T09:56:31.490Z,47.40
2018-07-02T09:58:59.066Z,46.60
2018-07-02T10:01:26.820Z,45.30
2018-07-02T10:03:55.081Z,44.90
2018-07-02T10:06:24.427Z,44.10
2018-07-02T10:08:52.015Z,42.20
2018-07-02T10:11:19.669Z,43.70
2018-07-02T10:16:14.855Z,44.70
2018-07-02T10:18:42.569Z,41.60
2018-07-02T10:21:10.865Z,42.50
2018-07-02T10:23:38.535Z,43.50
2018-07-02T10:26:06.441Z,42.70
2018-07-02T10:28:34.079Z,43.70
2018-07-02T10:31:02.212Z,42.60
2018-07-02T10:33:29.801Z,44.50
2018-07-02T10:35:57.798Z,43.30
2018-07-02T10:38:25.400Z,42.20
2018-07-02T10:40:53.027Z,43.60
2018-07-02T10:43:20.622Z,43.20
2018-07-02T10:45:48.196Z,43.40
2018-07-02T10:48:15.929Z,44.00
2018-07-02T10:50:48.036Z,43.50
2018-07-02T10:53:15.740Z,42.50
2018-07-02T10:55:43.490Z,41.20
2018-07-02T11:01:48.086Z,40.80
2018-07-02T11:04:26.397Z,42.20
2018-07-02T11:07:04.207Z,41.20
2018-07-02T11:09:31.840Z,39.90
2018-07-02T11:11:59.405Z,41.70
2018-07-02T11:14:27.017Z,41.30
2018-07-02T11:16:54.564Z,39.60
2018-07-02T11:19:22.119Z,39.60
2018-07-02T11:22:02.102Z,40.20
2018-07-02T11:24:30.142Z,40.50
2018-07-02T11:29:33.976Z,40.10
2018-07-02T11:32:01.607Z,38.70
2018-07-02T11:34:29.164Z,39.00
2018-07-02T11:36:56.768Z,39.70
2018-07-02T11:39:24.372Z,38.40
2018-07-02T11:41:51.959Z,38.20
2018-07-02T11:44:19.596Z,35.40
2018-07-02T11:46:47.202Z,33.10
2018-07-02T11:49:14.880Z,28.50
2018-07-02T11:51:42.598Z,26.40
2018-07-02T11:54:10.216Z,24.00
2018-07-02T11:56:37.795Z,22.50
2018-07-02T11:59:05.485Z,21.30
2018-07-02T12:01:33.200Z,20.00
2018-07-02T12:04:00.843Z,19.80
2018-07-02T12:06:28.484Z,18.70
2018-07-02T12:08:56.131Z,17.60
2018-07-02T12:11:23.774Z,16.80
2018-07-02T12:13:52.275Z,16.20
2018-07-02T12:16:19.942Z,15.80
2018-07-02T12:18:47.620Z,15.70
2018-07-02T12:21:15.237Z,15.50
2018-07-02T12:23:42.843Z,15.00
2018-07-02T12:26:11.360Z,15.20
2018-07-02T12:28:39.850Z,14.50
2018-07-02T12:31:07.511Z,14.30
2018-07-02T12:33:35.368Z,14.60
2018-07-02T12:36:02.990Z,13.90
2018-07-02T12:38:30.577Z,13.70
2018-07-02T12:40:58.164Z,14.00
2018-07-02T12:43:25.836Z,13.50
2018-07-02T12:45:53.418Z,14.20
2018-07-02T12:48:21.083Z,13.60
2018-07-02T12:50:48.702Z,13.80
2018-07-02T12:53:16.415Z,13.90
2018-07-02T12:55:44.082Z,13.60
2018-07-02T12:58:11.671Z,13.70
2018-07-02T13:00:39.280Z,13.30
2018-07-02T13:03:06.831Z,13.30
2018-07-02T13:05:34.443Z,13.00
2018-07-02T13:08:02.789Z,12.90
2018-07-02T13:10:31.642Z,13.10
2018-07-02T13:12:59.288Z,13.00
2018-07-02T13:15:26.928Z,12.80
2018-07-02T13:17:54.831Z,13.10
2018-07-02T13:20:22.588Z,13.40
2018-07-02T13:22:50.209Z,13.80
2018-07-02T13:25:17.804Z,13.10
2018-07-02T13:27:45.476Z,13.50
2018-07-02T13:30:13.184Z,14.40
2018-07-02T13:32:40.768Z,14.60
2018-07-02T13:35:08.393Z,16.50
2018-07-02T13:37:36.009Z,16.20
2018-07-02T13:40:03.652Z,16.00
2018-07-02T13:42:32.028Z,14.90
2018-07-02T13:44:59.607Z,15.30
2018-07-02T13:47:27.171Z,14.40
2018-07-02T13:49:54.776Z,14.40
2018-07-02T13:52:22.323Z,14.70
2018-07-02T13:54:49.962Z,14.60
2018-07-02T13:57:17.582Z,14.80
2018-07-02T13:59:45.244Z,15.30
2018-07-02T14:02:12.899Z,15.90
2018-07-02T14:04:40.499Z,17.10
2018-07-02T14:09:35.642Z,19.40
2018-07-02T14:12:03.349Z,21.30
2018-07-02T14:14:30.974Z,22.10
2018-07-02T14:16:58.584Z,21.90
2018-07-02T14:19:26.128Z,22.20
2018-07-02T14:21:53.750Z,22.40
2018-07-02T14:24:21.378Z,22.70
2018-07-02T14:26:48.931Z,22.30
2018-07-02T14:29:16.587Z,21.80
2018-07-02T14:31:44.167Z,21.30
2018-07-02T14:36:39.310Z,18.30
2018-07-02T14:39:09.658Z,18.10
2018-07-02T14:41:37.285Z,17.00
2018-07-02T14:44:05.096Z,17.10
2018-07-02T14:46:32.739Z,18.60
2018-07-02T14:49:01.698Z,19.60
2018-07-02T14:51:29.351Z,19.80
2018-07-02T14:53:56.964Z,19.80
2018-07-02T14:56:24.660Z,19.80
2018-07-02T14:58:52.235Z,18.10
2018-07-02T15:01:19.810Z,17.20
2018-07-02T15:03:47.448Z,16.60
2018-07-02T15:06:15.031Z,17.40
2018-07-02T15:08:42.624Z,16.70
2018-07-02T15:11:10.252Z,16.80
2018-07-02T15:13:37.859Z,17.70
2018-07-02T15:16:05.508Z,19.10
2018-07-02T15:18:33.090Z,19.70
2018-07-02T15:21:00.688Z,18.30
2018-07-02T15:23:28.323Z,18.90
2018-07-02T15:28:23.481Z,18.20
2018-07-02T15:30:51.098Z,18.40
2018-07-02T15:33:18.742Z,18.80
2018-07-02T15:35:46.364Z,18.80
2018-07-02T15:38:13.955Z,19.10
2018-07-02T15:40:41.573Z,20.10
2018-07-02T15:43:09.198Z,21.40
2018-07-02T15:45:36.910Z,22.80
2018-07-02T15:48:04.579Z,21.30
2018-07-02T15:50:32.270Z,22.40
2018-07-02T15:52:59.918Z,21.20
2018-07-02T15:55:27.648Z,21.80
2018-07-02T15:57:55.290Z,21.10
2018-07-02T16:00:23.053Z,21.60
2018-07-02T16:05:18.206Z,23.20
2018-07-02T16:07:45.833Z,24.30
2018-07-02T16:12:42.171Z,23.50
2018-07-02T16:17:37.536Z,24.20
2018-07-02T16:20:05.193Z,26.00
2018-07-02T16:22:32.870Z,25.70
2018-07-02T16:25:00.540Z,25.40
2018-07-02T16:27:28.096Z,26.60
2018-07-02T16:29:55.762Z,25.50
2018-07-02T16:32:24.304Z,26.90
2018-07-02T16:34:51.919Z,28.80
2018-07-02T16:37:19.589Z,29.10
2018-07-02T16:39:47.214Z,28.70
2018-07-02T16:42:14.838Z,30.20
2018-07-02T16:44:42.485Z,29.40
2018-07-02T16:47:10.143Z,31.00
2018-07-02T16:49:37.782Z,29.10
2018-07-02T16:52:05.473Z,31.30
2018-07-02T16:54:34.452Z,31.20
2018-07-02T16:57:02.212Z,32.10
2018-07-02T16:59:29.861Z,32.10
2018-07-02T17:01:57.606Z,31.80
2018-07-02T17:04:25.302Z,32.80
2018-07-02T17:06:53.153Z,32.70
2018-07-02T17:09:24.281Z,32.10
2018-07-02T17:11:52.613Z,33.00
2018-07-02T17:16:47.884Z,33.20
2018-07-02T17:19:15.545Z,33.10
2018-07-02T17:21:43.378Z,33.70
2018-07-02T17:24:11.103Z,33.60
2018-07-02T17:26:38.864Z,34.40
2018-07-02T17:29:06.466Z,34.80
2018-07-02T17:31:34.133Z,33.80
2018-07-02T17:34:02.664Z,34.10
2018-07-02T17:36:30.609Z,34.00
2018-07-02T17:38:58.195Z,35.00
2018-07-02T17:41:25.840Z,36.00
2018-07-02T17:43:53.476Z,35.90
2018-07-02T17:46:21.238Z,37.00
2018-07-02T17:48:48.828Z,35.10
2018-07-02T17:51:16.440Z,36.60
2018-07-02T17:53:44.172Z,36.70
2018-07-02T17:56:11.820Z,36.50
2018-07-02T17:58:39.492Z,37.00
2018-07-02T18:01:07.233Z,37.00
2018-07-02T18:03:34.893Z,36.60
2018-07-02T18:06:02.679Z,36.60
2018-07-02T18:08:30.546Z,37.10
2018-07-02T18:10:58.267Z,36.40
2018-07-02T18:13:25.937Z,36.60
2018-07-02T18:15:53.541Z,36.90
2018-07-02T18:18:21.166Z,37.10
2018-07-02T18:20:48.791Z,37.60
2018-07-02T18:23:17.572Z,37.80
2018-07-02T18:25:45.245Z,38.90
2018-07-02T18:28:13.947Z,38.60
2018-07-02T18:30:41.671Z,39.40
2018-07-02T18:33:09.360Z,39.30
2018-07-02T18:35:37.110Z,39.70
2018-07-02T18:38:04.781Z,40.20
2018-07-02T18:40:48.950Z,40.40
2018-07-02T18:43:18.580Z,40.80
2018-07-02T18:45:46.388Z,40.90
2018-07-02T18:48:14.184Z,41.00
2018-07-02T18:50:41.902Z,40.90
2018-07-02T18:53:09.628Z,40.80
2018-07-02T18:55:37.616Z,41.20
2018-07-02T18:58:06.249Z,40.70
2018-07-02T19:00:34.045Z,41.50
2018-07-02T19:03:01.814Z,41.20
2018-07-02T19:05:29.555Z,41.50
2018-07-02T19:07:57.356Z,41.20
2018-07-02T19:10:25.009Z,41.70
2018-07-02T19:12:52.676Z,42.10
2018-07-02T19:15:20.399Z,43.10
2018-07-02T19:17:48.068Z,44.00
2018-07-02T19:20:15.779Z,44.80
2018-07-02T19:22:43.530Z,44.80
2018-07-02T19:25:11.191Z,44.40
2018-07-02T19:27:38.846Z,45.10
2018-07-02T19:30:06.670Z,46.20
2018-07-02T19:32:34.390Z,46.40
2018-07-02T19:35:02.120Z,46.30
2018-07-02T19:37:29.775Z,46.70
2018-07-02T19:39:57.519Z,47.50
2018-07-02T19:42:25.146Z,47.70
2018-07-02T19:44:52.756Z,47.90
2018-07-02T19:47:20.648Z,48.60
2018-07-02T19:49:48.248Z,48.60
2018-07-02T19:52:15.850Z,48.10
2018-07-02T19:54:43.544Z,48.50
2018-07-02T19:57:11.248Z,49.30
2018-07-02T19:59:41.303Z,50.00
2018-07-02T20:02:09.039Z,50.30
2018-07-02T20:04:36.829Z,50.20
2018-07-02T20:07:05.461Z,51.00
2018-07-02T20:09:33.314Z,52.10
2018-07-02T20:12:01.214Z,52.10
2018-07-02T20:14:28.973Z,52.80
2018-07-02T20:16:56.596Z,53.30
2018-07-02T20:19:24.359Z,54.40
2018-07-02T20:21:52.030Z,54.30
2018-07-02T20:24:21.642Z,54.80
2018-07-02T20:26:49.270Z,55.10
2018-07-02T20:29:16.989Z,55.10
2018-07-02T20:31:44.846Z,53.90
2018-07-02T20:34:12.478Z,52.80
2018-07-02T20:36:40.625Z,53.20
2018-07-02T20:39:09.641Z,53.90
2018-07-02T20:41:37.343Z,54.40
2018-07-02T20:44:05.076Z,55.10
2018-07-02T20:46:33.101Z,55.80
2018-07-02T20:49:00.748Z,56.30
2018-07-02T20:51:28.409Z,56.60
2018-07-02T20:53:56.049Z,56.60
2018-07-02T20:56:23.670Z,56.70
2018-07-02T20:58:51.279Z,57.40
2018-07-02T21:03:46.431Z,57.30
2018-07-02T21:06:14.098Z,57.70
2018-07-02T21:08:41.727Z,57.70
2018-07-02T21:11:09.387Z,58.00
2018-07-02T21:16:04.702Z,57.80
2018-07-02T21:18:32.310Z,58.10
2018-07-02T21:20:59.917Z,58.40
2018-07-02T21:23:27.514Z,58.40
2018-07-02T21:25:56.147Z,58.10
2018-07-02T21:28:23.804Z,58.30
2018-07-02T21:30:51.481Z,58.70
2018-07-02T21:33:19.130Z,58.90
2018-07-02T21:35:47.569Z,59.30
2018-07-02T21:38:15.193Z,59.30
2018-07-02T21:40:42.917Z,59.50
2018-07-02T21:43:10.572Z,59.80
2018-07-02T21:45:38.241Z,60.10
2018-07-02T21:48:05.890Z,60.00
2018-07-02T21:50:34.805Z,60.40
2018-07-02T21:53:02.424Z,60.90
2018-07-02T21:55:30.029Z,61.00
2018-07-02T21:57:57.647Z,61.90
2018-07-02T22:00:25.288Z,62.50
2018-07-02T22:02:53.607Z,62.60
2018-07-02T22:05:21.240Z,62.50
2018-07-02T22:07:49.856Z,62.60
2018-07-02T22:10:17.472Z,62.80
2018-07-02T22:12:45.125Z,63.10
2018-07-02T22:15:12.738Z,63.00
2018-07-02T22:17:42.080Z,63.40
2018-07-02T22:20:09.712Z,63.50
2018-07-02T22:22:37.333Z,63.80
2018-07-02T22:25:05.101Z,63.70
2018-07-02T22:27:33.636Z,63.70
2018-07-02T22:32:29.337Z,63.90
2018-07-02T22:34:56.901Z,64.00
2018-07-02T22:37:25.431Z,63.80
2018-07-02T22:39:53.080Z,63.60
2018-07-02T22:42:20.768Z,63.20
2018-07-02T22:44:48.389Z,62.90
2018-07-02T22:47:16.025Z,62.70
2018-07-02T22:49:43.636Z,62.80
2018-07-02T22:52:11.320Z,62.90
2018-07-02T22:54:38.960Z,62.90
2018-07-02T22:57:06.578Z,63.30
2018-07-02T22:59:34.187Z,63.50
2018-07-02T23:02:01.773Z,63.70
2018-07-02T23:04:29.393Z,63.50
2018-07-02T23:06:57.561Z,63.30
2018-07-02T23:09:25.139Z,63.20
2018-07-02T23:11:52.892Z,63.50
2018-07-02T23:14:20.490Z,64.00
2018-07-02T23:16:48.231Z,64.00
2018-07-02T23:19:15.883Z,63.90
2018-07-02T23:21:43.461Z,64.10
2018-07-02T23:24:11.132Z,64.60
2018-07-02T23:26:38.743Z,64.50
2018-07-02T23:29:06.300Z,64.50
2018-07-02T23:31:33.873Z,64.30
2018-07-02T23:34:01.512Z,64.30
2018-07-02T23:36:29.104Z,64.30
2018-07-02T23:38:57.524Z,64.70
2018-07-02T23:41:25.116Z,65.70
2018-07-02T23:43:52.780Z,66.10
2018-07-02T23:46:20.353Z,66.20
2018-07-02T23:48:47.952Z,66.10
2018-07-02T23:51:15.638Z,66.60
2018-07-02T23:53:43.189Z,66.70
2018-07-02T23:56:11.350Z,67.20
2018-07-02T23:58:39.691Z,67.20
